Time;durP1;ratioP1;P1;durP2;ratioP2;P2;SDS_P1;SDS_P2;PMS_P1;PMS_P2;Temp;Humidity;BMP_temperature;BMP_pressure;BME280_temperature;BME280_humidity;BME280_pressure;Samples;Min_cycle;Max_cycle;Signal;HPM_P1;HPM_P2
2024/03/16 10:06:10;;;;;;;0.47;0.20;;;11.10;99.90;;;;;;2808993;23;20241;-71
2024/03/16 10:08:37;;;;;;;1.20;0.40;;;11.00;99.90;;;;;;4895732;29;20217;-69
2024/03/16 10:11:10;;;;;;;2.93;0.30;;;11.10;99.90;;;;;;4913692;29;20309;-69
2024/03/16 10:13:38;;;;;;;1.87;0.40;;;11.30;99.90;;;;;;4913239;29;20229;-69
2024/03/16 10:16:06;;;;;;;1.33;0.40;;;11.40;99.90;;;;;;4898461;29;20220;-69
2024/03/16 10:18:35;;;;;;;0.87;0.40;;;11.40;99.90;;;;;;4898401;29;20209;-69
2024/03/16 10:21:03;;;;;;;2.17;0.40;;;11.40;99.90;;;;;;4898303;29;20590;-70
2024/03/16 10:23:31;;;;;;;2.20;0.30;;;11.50;99.90;;;;;;4898159;29;20230;-69
2024/03/16 10:25:58;;;;;;;7.73;2.30;;;11.70;99.90;;;;;;4901875;29;20206;-72
2024/03/16 10:28:25;;;;;;;0.80;0.30;;;11.80;99.90;;;;;;4901806;29;20618;-70
2024/03/16 10:30:56;;;;;;;2.73;0.40;;;11.90;99.90;;;;;;4902008;29;20209;-70
2024/03/16 10:33:23;;;;;;;1.30;0.43;;;12.00;99.90;;;;;;4901632;29;20296;-70
2024/03/16 10:35:52;;;;;;;2.90;0.50;;;12.10;99.90;;;;;;4901549;29;20237;-70
2024/03/16 10:38:19;;;;;;;0.60;0.50;;;11.80;99.90;;;;;;4901761;29;20237;-70
2024/03/16 10:40:46;;;;;;;2.60;0.60;;;11.80;99.90;;;;;;4901550;29;20237;-70
2024/03/16 10:43:13;;;;;;;1.60;0.50;;;11.70;99.90;;;;;;4895741;29;20271;-73
2024/03/16 10:45:45;;;;;;;0.40;0.40;;;11.60;99.90;;;;;;4897503;29;20239;-72
2024/03/16 10:48:13;;;;;;;3.40;0.60;;;11.80;99.90;;;;;;4899187;29;20225;-73
2024/03/16 10:50:43;;;;;;;1.17;0.40;;;11.70;99.90;;;;;;4900998;29;20217;-73
2024/03/16 10:53:10;;;;;;;1.50;0.40;;;11.90;99.90;;;;;;4914748;29;20341;-70
2024/03/16 10:55:39;;;;;;;3.23;0.67;;;12.10;99.90;;;;;;4919439;29;20672;-72
2024/03/16 10:58:07;;;;;;;0.57;0.50;;;12.10;99.90;;;;;;4901276;29;20205;-72
2024/03/16 11:00:37;;;;;;;0.67;0.50;;;12.10;99.90;;;;;;4901314;29;20243;-72
2024/03/16 11:03:07;;;;;;;1.17;0.50;;;12.10;99.90;;;;;;4900939;29;20682;-72
2024/03/16 11:05:37;;;;;;;1.47;0.67;;;12.20;99.90;;;;;;4914747;29;20220;-71
2024/03/16 11:08:37;;;;;;;1.13;0.40;;;12.20;99.90;;;;;;4901299;29;20693;-71
2024/03/16 11:11:05;;;;;;;2.50;0.50;;;11.90;99.90;;;;;;4911325;29;20210;-71
2024/03/16 11:13:32;;;;;;;1.37;0.40;;;11.90;99.90;;;;;;4900907;29;20233;-73
2024/03/16 11:15:59;;;;;;;0.40;0.30;;;12.00;99.90;;;;;;4900524;29;20241;-72
2024/03/16 11:18:39;;;;;;;0.40;0.30;;;12.20;99.90;;;;;;4901020;29;20209;-75
2024/03/16 11:21:08;;;;;;;0.40;0.30;;;12.40;99.90;;;;;;4900898;29;20251;-73
2024/03/16 11:23:35;;;;;;;0.60;0.30;;;12.50;99.90;;;;;;4900740;29;20229;-71
2024/03/16 11:26:37;;;;;;;1.33;0.27;;;12.50;99.90;;;;;;4898244;29;20217;-69
2024/03/16 11:29:10;;;;;;;2.37;0.37;;;12.70;99.90;;;;;;4915794;29;20708;-70
2024/03/16 11:31:39;;;;;;;0.60;0.37;;;12.70;99.90;;;;;;4900624;29;20201;-70
2024/03/16 11:34:08;;;;;;;0.60;0.40;;;12.80;99.90;;;;;;4900333;29;20396;-70
2024/03/16 11:36:35;;;;;;;0.87;0.43;;;12.80;99.90;;;;;;4900178;29;20245;-70
2024/03/16 11:39:10;;;;;;;0.80;0.63;;;12.70;99.90;;;;;;4899973;29;20297;-70
2024/03/16 11:41:42;;;;;;;0.73;0.70;;;12.80;99.90;;;;;;4907918;29;20212;-70
2024/03/16 11:44:13;;;;;;;1.17;0.67;;;12.90;99.90;;;;;;4900882;29;20324;-70
2024/03/16 11:46:40;;;;;;;1.67;1.00;;;13.00;99.90;;;;;;4900727;29;20783;-72
2024/03/16 11:49:10;;;;;;;3.50;0.73;;;13.40;99.90;;;;;;4900710;29;20214;-70
2024/03/16 11:51:37;;;;;;;2.87;0.53;;;13.50;99.90;;;;;;4901332;29;20209;-70
2024/03/16 11:54:06;;;;;;;0.77;0.53;;;13.50;99.90;;;;;;4900425;29;20281;-70
2024/03/16 11:56:33;;;;;;;1.37;0.33;;;13.60;99.90;;;;;;4899556;29;20216;-70
2024/03/16 11:59:03;;;;;;;1.47;0.30;;;13.60;99.90;;;;;;4899757;29;20673;-70
2024/03/16 12:01:30;;;;;;;2.20;0.40;;;13.70;99.90;;;;;;4900317;29;20297;-70
2024/03/16 12:03:57;;;;;;;0.50;0.40;;;13.80;99.90;;;;;;4899391;29;20232;-70
2024/03/16 12:06:23;;;;;;;1.43;0.50;;;13.80;99.90;;;;;;4899681;29;20234;-70
2024/03/16 12:08:51;;;;;;;1.00;0.50;;;13.80;99.90;;;;;;4899701;29;20220;-72
2024/03/16 12:11:18;;;;;;;1.07;0.60;;;13.80;99.90;;;;;;4899078;29;20217;-72
2024/03/16 12:13:46;;;;;;;0.60;0.50;;;13.80;99.90;;;;;;4899081;29;20710;-72
2024/03/16 12:16:12;;;;;;;1.27;0.63;;;13.90;99.90;;;;;;4899674;29;20669;-71
2024/03/16 12:18:39;;;;;;;0.53;0.40;;;13.80;99.90;;;;;;4880745;29;20214;-71
2024/03/16 12:21:05;;;;;;;0.93;0.40;;;14.00;99.90;;;;;;4895478;29;20329;-71
2024/03/16 12:23:32;;;;;;;0.60;0.53;;;14.30;99.90;;;;;;4908614;29;20225;-71
2024/03/16 12:25:59;;;;;;;1.20;0.80;;;14.50;99.90;;;;;;4900144;29;20241;-72
2024/03/16 12:28:26;;;;;;;2.23;0.53;;;14.40;99.90;;;;;;4899174;29;20213;-72
2024/03/16 12:30:52;;;;;;;1.40;0.50;;;14.40;99.90;;;;;;4915666;29;20233;-71
2024/03/16 12:33:19;;;;;;;0.60;0.40;;;14.50;99.90;;;;;;4918135;29;20234;-72
2024/03/16 12:35:45;;;;;;;1.13;0.80;;;14.60;99.90;;;;;;4899208;29;20240;-69
2024/03/16 12:38:12;;;;;;;1.13;0.50;;;14.30;99.90;;;;;;4899060;29;20209;-69
2024/03/16 12:40:39;;;;;;;1.03;0.53;;;14.60;99.90;;;;;;4898787;29;20275;-72
2024/03/16 12:43:06;;;;;;;1.00;0.60;;;14.80;99.90;;;;;;4901690;29;20241;-71
2024/03/16 12:45:32;;;;;;;2.40;0.33;;;14.60;99.90;;;;;;4898945;29;20241;-78
2024/03/16 12:47:59;;;;;;;1.37;0.53;;;14.90;99.90;;;;;;4898097;29;20236;-70
2024/03/16 12:50:25;;;;;;;0.50;0.50;;;14.80;99.90;;;;;;4899097;29;20237;-71
2024/03/16 12:52:52;;;;;;;2.23;0.47;;;14.50;99.90;;;;;;4897558;29;20267;-71
2024/03/16 12:55:18;;;;;;;0.47;0.30;;;14.30;99.90;;;;;;4898271;29;20681;-70
2024/03/16 12:57:47;;;;;;;0.70;0.40;;;14.10;99.90;;;;;;4896265;29;20211;-72
2024/03/16 13:00:16;;;;;;;2.83;0.60;;;14.00;99.90;;;;;;4880487;29;20234;-71
2024/03/16 13:02:44;;;;;;;1.00;0.40;;;13.80;99.90;;;;;;4889744;29;20213;-71
2024/03/16 13:05:10;;;;;;;1.77;0.40;;;13.60;99.90;;;;;;4898286;29;20654;-75
2024/03/16 13:07:39;;;;;;;0.93;0.43;;;13.50;99.90;;;;;;4898605;29;20249;-71
2024/03/16 13:10:05;;;;;;;1.07;0.40;;;13.20;99.90;;;;;;4899357;29;20302;-70
2024/03/16 13:12:32;;;;;;;0.80;0.33;;;13.10;99.90;;;;;;4898571;29;20566;-72
2024/03/16 13:14:58;;;;;;;1.43;0.93;;;13.10;99.90;;;;;;4898145;29;20765;-71
2024/03/16 13:17:25;;;;;;;1.63;0.40;;;13.10;99.90;;;;;;4898243;29;20208;-71
2024/03/16 13:19:51;;;;;;;3.27;0.30;;;13.00;99.90;;;;;;4916826;29;20248;-71
2024/03/16 13:22:18;;;;;;;2.33;0.40;;;12.90;99.90;;;;;;4921038;29;20214;-70
2024/03/16 13:24:44;;;;;;;2.17;0.47;;;13.00;99.90;;;;;;4898387;29;20288;-72
2024/03/16 13:27:12;;;;;;;7.00;0.73;;;12.80;99.90;;;;;;4897899;29;20202;-72
2024/03/16 13:29:38;;;;;;;0.70;0.50;;;13.00;99.90;;;;;;4898306;29;20300;-70
2024/03/16 13:32:05;;;;;;;2.37;0.60;;;13.10;99.90;;;;;;4898800;29;20212;-71
2024/03/16 13:34:31;;;;;;;1.67;0.50;;;13.10;99.90;;;;;;4898439;29;20285;-69
2024/03/16 13:36:59;;;;;;;2.03;0.70;;;13.20;99.90;;;;;;4895693;29;20209;-68
2024/03/16 13:39:26;;;;;;;1.03;0.70;;;13.30;99.90;;;;;;4900258;29;20209;-68
2024/03/16 13:41:53;;;;;;;1.83;0.60;;;13.50;99.90;;;;;;4899852;29;20237;-68
2024/03/16 13:44:19;;;;;;;1.90;0.77;;;13.60;99.90;;;;;;4900095;29;20284;-69
2024/03/16 13:46:46;;;;;;;2.67;0.60;;;13.80;99.90;;;;;;4899795;29;20213;-72
2024/03/16 13:49:15;;;;;;;2.37;0.70;;;13.80;99.90;;;;;;4900071;29;20248;-69
2024/03/16 13:51:42;;;;;;;2.67;0.70;;;13.90;99.90;;;;;;4900415;29;20248;-70
2024/03/16 13:54:08;;;;;;;2.10;0.70;;;13.90;99.90;;;;;;4899994;29;20316;-69
2024/03/16 13:56:35;;;;;;;0.90;0.63;;;13.90;99.90;;;;;;4900179;29;20717;-68
2024/03/16 13:59:01;;;;;;;0.93;0.50;;;13.70;99.90;;;;;;4900633;29;20704;-71
2024/03/16 14:01:29;;;;;;;1.40;0.60;;;13.90;99.90;;;;;;4903493;29;20236;-69
2024/03/16 14:03:56;;;;;;;3.30;0.57;;;13.90;99.90;;;;;;4903803;29;20229;-69
2024/03/16 14:06:23;;;;;;;1.27;0.63;;;13.80;99.90;;;;;;4903823;29;20670;-69
2024/03/16 14:08:49;;;;;;;1.60;0.50;;;13.80;99.90;;;;;;4903760;29;20248;-69
2024/03/16 14:11:16;;;;;;;0.73;0.40;;;13.80;99.90;;;;;;4903821;29;20237;-68
2024/03/16 14:13:42;;;;;;;1.30;0.73;;;13.80;99.90;;;;;;4903659;29;20312;-69
2024/03/16 14:16:10;;;;;;;0.67;0.50;;;13.90;99.90;;;;;;4903519;29;20223;-68
2024/03/16 14:18:36;;;;;;;0.63;0.50;;;13.90;99.90;;;;;;4903938;29;20213;-69
2024/03/16 14:21:04;;;;;;;0.60;0.40;;;13.90;99.90;;;;;;4903401;29;20609;-69
2024/03/16 14:23:30;;;;;;;0.67;0.50;;;14.00;99.90;;;;;;4903555;29;20238;-75
2024/03/16 14:25:57;;;;;;;0.80;0.40;;;14.00;99.90;;;;;;4903551;29;20209;-68
2024/03/16 14:28:24;;;;;;;3.77;0.47;;;14.10;99.90;;;;;;4903701;29;20213;-68
2024/03/16 14:30:51;;;;;;;0.83;0.40;;;14.20;99.90;;;;;;4903195;29;20210;-72
2024/03/16 14:33:19;;;;;;;1.83;0.33;;;14.00;99.90;;;;;;4903350;29;20257;-69
2024/03/16 14:35:47;;;;;;;0.70;0.40;;;13.90;99.90;;;;;;4903469;29;20216;-69
2024/03/16 14:38:14;;;;;;;1.00;0.40;;;13.90;99.90;;;;;;4902955;29;20670;-68
2024/03/16 14:40:41;;;;;;;0.77;0.40;;;13.70;99.90;;;;;;4903013;29;20237;-69
2024/03/16 14:43:07;;;;;;;0.70;0.40;;;13.90;99.90;;;;;;4902799;29;20257;-69
2024/03/16 14:45:34;;;;;;;1.80;0.73;;;14.00;99.90;;;;;;4902929;29;20213;-69
2024/03/16 14:48:00;;;;;;;0.70;0.50;;;13.80;99.90;;;;;;4902762;29;20313;-70
2024/03/16 14:50:28;;;;;;;0.67;0.37;;;14.00;99.90;;;;;;4902535;29;20206;-69
2024/03/16 14:52:57;;;;;;;2.03;0.30;;;14.00;99.90;;;;;;4902612;29;20206;-69
2024/03/16 14:55:24;;;;;;;2.73;0.43;;;13.80;99.90;;;;;;4903248;29;20217;-70
2024/03/16 14:57:51;;;;;;;2.33;0.60;;;13.90;99.90;;;;;;4902812;29;20244;-68
2024/03/16 15:00:19;;;;;;;1.50;0.40;;;13.60;99.90;;;;;;4903028;29;20284;-68
2024/03/16 15:02:46;;;;;;;0.80;0.40;;;13.80;99.90;;;;;;4902881;29;20722;-69
2024/03/16 15:05:15;;;;;;;0.33;0.30;;;13.90;99.90;;;;;;4903015;29;20209;-69
2024/03/16 15:07:42;;;;;;;2.17;0.50;;;14.00;99.90;;;;;;4902886;29;20239;-69
2024/03/16 15:10:10;;;;;;;0.67;0.50;;;14.20;99.90;;;;;;4902401;29;20210;-69
2024/03/16 15:12:36;;;;;;;1.43;0.40;;;14.30;99.90;;;;;;4901738;29;20217;-69
2024/03/16 15:15:04;;;;;;;0.97;0.50;;;14.00;99.90;;;;;;4902347;29;20741;-68
2024/03/16 15:17:31;;;;;;;2.33;0.60;;;13.70;99.90;;;;;;4902659;29;20210;-69
2024/03/16 15:19:58;;;;;;;2.27;0.50;;;13.40;99.90;;;;;;4902534;29;20269;-71
2024/03/16 15:22:24;;;;;;;2.00;0.50;;;13.30;99.90;;;;;;4902174;29;20300;-69
2024/03/16 15:24:53;;;;;;;1.13;0.50;;;13.40;99.90;;;;;;4901940;29;20233;-69
2024/03/16 15:27:30;;;;;;;0.97;0.40;;;13.40;99.90;;;;;;4902681;29;20210;-71
2024/03/16 15:29:57;;;;;;;1.40;0.63;;;13.30;99.90;;;;;;4903724;29;20216;-69
2024/03/16 15:32:24;;;;;;;0.77;0.50;;;13.40;99.90;;;;;;4902262;29;20300;-69
2024/03/16 15:34:51;;;;;;;0.77;0.40;;;13.60;99.90;;;;;;4902121;29;20611;-70
2024/03/16 15:37:17;;;;;;;2.37;0.40;;;13.70;99.90;;;;;;4902013;29;20206;-69
2024/03/16 15:39:44;;;;;;;1.70;0.40;;;13.80;99.90;;;;;;4901639;29;20214;-69
2024/03/16 15:42:10;;;;;;;2.20;0.40;;;13.70;99.90;;;;;;4901876;29;20333;-69
2024/03/16 15:44:37;;;;;;;1.87;0.57;;;13.70;99.90;;;;;;4901783;29;20229;-69
2024/03/16 15:47:03;;;;;;;1.23;0.40;;;13.60;99.90;;;;;;4901927;29;20245;-69
2024/03/16 15:49:30;;;;;;;0.57;0.40;;;13.40;99.90;;;;;;4901867;29;20257;-70
2024/03/16 15:51:56;;;;;;;1.13;0.40;;;13.20;99.90;;;;;;4901805;29;20248;-69
2024/03/16 15:54:23;;;;;;;2.20;0.50;;;13.10;99.90;;;;;;4901661;29;20237;-69
2024/03/16 15:56:49;;;;;;;0.60;0.43;;;13.00;99.90;;;;;;4901638;29;20646;-68
2024/03/16 15:59:16;;;;;;;0.50;0.40;;;12.80;99.90;;;;;;4901596;29;20686;-69
2024/03/16 16:01:44;;;;;;;0.47;0.37;;;12.70;99.90;;;;;;4901340;29;20333;-70
2024/03/16 16:04:11;;;;;;;0.90;0.40;;;12.60;99.90;;;;;;4902204;29;20351;-70
2024/03/16 16:06:37;;;;;;;2.83;0.73;;;12.80;99.90;;;;;;4901256;29;20637;-70
2024/03/16 16:09:05;;;;;;;1.30;0.50;;;12.70;99.90;;;;;;4901144;29;20209;-70
2024/03/16 16:11:31;;;;;;;1.60;0.47;;;12.60;99.90;;;;;;4901454;29;20213;-70
2024/03/16 16:13:58;;;;;;;1.90;0.50;;;12.70;99.90;;;;;;4901023;29;20238;-70
2024/03/16 16:16:24;;;;;;;1.27;0.57;;;12.70;99.90;;;;;;4901632;29;20245;-70
2024/03/16 16:18:54;;;;;;;1.60;0.40;;;12.70;99.90;;;;;;4901495;29;20209;-76
2024/03/16 16:21:20;;;;;;;2.77;0.40;;;12.80;99.90;;;;;;4901600;29;20237;-72
2024/03/16 16:23:47;;;;;;;1.40;0.50;;;12.90;99.90;;;;;;4901216;29;20229;-70
2024/03/16 16:26:13;;;;;;;0.60;0.40;;;12.80;99.90;;;;;;4901567;29;20626;-70
2024/03/16 16:28:41;;;;;;;0.60;0.40;;;12.90;99.90;;;;;;4901255;29;20217;-70
2024/03/16 16:31:07;;;;;;;0.80;0.40;;;12.90;99.90;;;;;;4901090;29;20225;-70
2024/03/16 16:33:34;;;;;;;0.50;0.37;;;13.10;99.90;;;;;;4900883;29;20230;-69
2024/03/16 16:36:00;;;;;;;0.93;0.20;;;13.10;99.90;;;;;;4901219;29;20249;-71
2024/03/16 16:38:28;;;;;;;0.23;0.20;;;12.90;99.90;;;;;;4900730;29;20209;-70
2024/03/16 16:40:53;;;;;;;0.97;0.40;;;12.90;99.90;;;;;;4900947;29;20274;-69
2024/03/16 16:43:22;;;;;;;1.53;0.50;;;12.80;99.90;;;;;;4901155;29;20711;-70
2024/03/16 16:45:48;;;;;;;1.27;0.50;;;12.80;99.90;;;;;;4900986;29;20206;-71
2024/03/16 16:48:15;;;;;;;1.57;0.50;;;12.60;99.90;;;;;;4900738;29;20288;-68
2024/03/16 16:50:41;;;;;;;1.23;0.50;;;12.40;99.90;;;;;;4901053;29;20244;-69
2024/03/16 16:53:10;;;;;;;1.37;0.30;;;12.20;99.90;;;;;;4900471;29;20312;-69
2024/03/16 16:55:37;;;;;;;0.70;0.40;;;12.30;99.90;;;;;;4901869;29;20220;-70
2024/03/16 16:58:04;;;;;;;1.10;0.30;;;12.40;99.90;;;;;;4901092;29;20671;-69
2024/03/16 17:00:30;;;;;;;1.03;0.40;;;12.40;99.90;;;;;;4901990;29;20213;-70
2024/03/16 17:02:57;;;;;;;0.53;0.30;;;12.40;99.90;;;;;;4900900;29;20641;-73
2024/03/16 17:05:24;;;;;;;1.10;0.30;;;12.50;99.90;;;;;;4901587;29;20240;-70
2024/03/16 17:07:51;;;;;;;1.43;0.30;;;12.30;99.90;;;;;;4900414;29;20228;-70
2024/03/16 17:10:17;;;;;;;1.43;0.40;;;12.40;99.90;;;;;;4900498;29;20212;-70
2024/03/16 17:12:44;;;;;;;4.60;0.30;;;12.20;99.90;;;;;;4900450;29;20216;-70
2024/03/16 17:15:10;;;;;;;0.80;0.40;;;12.00;99.90;;;;;;4899906;29;20253;-70
2024/03/16 17:17:37;;;;;;;1.50;0.60;;;12.00;99.90;;;;;;4900409;29;20552;-70
2024/03/16 17:20:05;;;;;;;1.17;0.30;;;12.20;99.90;;;;;;4900288;29;20210;-70
2024/03/16 17:22:32;;;;;;;1.17;0.50;;;12.30;99.90;;;;;;4900203;29;20237;-70
2024/03/16 17:24:58;;;;;;;0.60;0.43;;;12.20;99.90;;;;;;4900361;29;20265;-70
2024/03/16 17:27:26;;;;;;;1.77;0.50;;;12.30;99.90;;;;;;4900331;29;20212;-70
2024/03/16 17:29:53;;;;;;;0.77;0.33;;;12.20;99.90;;;;;;4900316;29;20216;-76
2024/03/16 17:32:20;;;;;;;0.60;0.50;;;12.20;99.90;;;;;;4900074;29;20205;-70
2024/03/16 17:34:46;;;;;;;1.00;0.40;;;12.20;99.90;;;;;;4899527;29;20268;-70
2024/03/16 17:37:13;;;;;;;2.00;0.40;;;12.00;99.90;;;;;;4899820;29;20268;-70
2024/03/16 17:39:43;;;;;;;1.80;0.60;;;12.10;99.90;;;;;;4900006;29;20209;-70
2024/03/16 17:42:10;;;;;;;0.80;0.53;;;12.00;99.90;;;;;;4900362;29;20240;-70
2024/03/16 17:44:36;;;;;;;2.07;0.70;;;12.00;99.90;;;;;;4899979;29;20229;-70
2024/03/16 17:47:07;;;;;;;3.03;0.40;;;12.10;99.90;;;;;;4900276;29;20280;-70
2024/03/16 17:49:33;;;;;;;3.60;0.70;;;12.10;99.90;;;;;;4900706;29;20300;-70
2024/03/16 17:52:00;;;;;;;1.10;0.70;;;12.10;99.90;;;;;;4900080;29;20213;-70
2024/03/16 17:54:27;;;;;;;1.20;0.73;;;12.00;99.90;;;;;;4899948;29;20261;-74
2024/03/16 17:56:54;;;;;;;1.20;0.77;;;12.00;99.90;;;;;;4899682;29;20209;-68
2024/03/16 17:59:21;;;;;;;1.83;1.20;;;12.00;99.90;;;;;;4900155;29;20552;-71
2024/03/16 18:01:47;;;;;;;1.47;0.90;;;12.00;99.90;;;;;;4899768;29;20639;-69
2024/03/16 18:04:15;;;;;;;1.93;0.90;;;12.00;99.90;;;;;;4899909;29;20229;-74
2024/03/16 18:06:41;;;;;;;2.30;0.90;;;12.10;99.90;;;;;;4899966;29;20221;-70
2024/03/16 18:09:09;;;;;;;2.10;1.10;;;12.00;99.90;;;;;;4899692;29;20697;-69
2024/03/16 18:11:35;;;;;;;2.17;0.93;;;11.70;99.90;;;;;;4900128;29;20228;-69
2024/03/16 18:14:02;;;;;;;1.63;0.73;;;11.70;99.90;;;;;;4899985;29;20260;-75
2024/03/16 18:16:28;;;;;;;2.13;1.00;;;11.80;99.90;;;;;;4899988;29;20213;-70
2024/03/16 18:18:55;;;;;;;1.17;0.80;;;12.00;99.90;;;;;;4899950;29;20244;-69
2024/03/16 18:21:21;;;;;;;1.50;1.10;;;11.90;99.90;;;;;;4899843;29;20316;-68
2024/03/16 18:23:50;;;;;;;1.23;0.77;;;11.90;99.90;;;;;;4899440;29;20233;-69
2024/03/16 18:26:16;;;;;;;1.70;1.10;;;12.10;99.90;;;;;;4916537;29;20205;-70
2024/03/16 18:28:42;;;;;;;2.57;1.50;;;12.30;99.90;;;;;;4916658;29;20297;-72
2024/03/16 18:31:09;;;;;;;4.83;1.80;;;12.40;99.90;;;;;;4916717;29;20237;-70
2024/03/16 18:33:36;;;;;;;2.13;1.30;;;12.30;99.90;;;;;;4916467;29;20340;-69
2024/03/16 18:36:02;;;;;;;1.80;1.00;;;11.80;99.90;;;;;;4916650;29;20218;-74
2024/03/16 18:38:29;;;;;;;2.10;1.30;;;11.60;99.90;;;;;;4916390;29;20206;-69
2024/03/16 18:40:56;;;;;;;2.97;1.47;;;11.50;99.90;;;;;;4916126;29;20233;-69
2024/03/16 18:43:23;;;;;;;2.90;1.17;;;11.30;99.90;;;;;;4916331;29;20237;-70
2024/03/16 18:45:49;;;;;;;1.17;0.80;;;11.20;99.90;;;;;;4916728;29;20210;-69
2024/03/16 18:48:16;;;;;;;3.33;1.07;;;10.70;99.90;;;;;;4919787;29;20574;-69
2024/03/16 18:50:42;;;;;;;2.43;0.80;;;10.60;99.90;;;;;;4919914;29;20229;-69
2024/03/16 18:53:09;;;;;;;1.70;1.00;;;10.60;99.90;;;;;;4919615;29;20229;-69
2024/03/16 18:55:37;;;;;;;3.33;1.00;;;10.70;99.90;;;;;;4919759;29;20273;-70
2024/03/16 18:58:05;;;;;;;2.30;1.00;;;10.60;99.90;;;;;;4919541;29;20212;-69
2024/03/16 19:00:38;;;;;;;2.33;1.23;;;10.40;99.90;;;;;;4919692;29;20305;-70
2024/03/16 19:03:06;;;;;;;2.17;1.30;;;10.30;99.90;;;;;;4919678;29;20555;-69
2024/03/16 19:05:32;;;;;;;2.73;1.37;;;10.20;99.90;;;;;;4919616;29;20212;-71
2024/03/16 19:07:59;;;;;;;5.17;1.20;;;10.20;99.90;;;;;;4919294;29;20687;-71
2024/03/16 19:10:26;;;;;;;3.83;1.60;;;10.10;99.90;;;;;;4919825;29;20241;-69
2024/03/16 19:12:53;;;;;;;2.57;1.40;;;10.00;99.90;;;;;;4919305;29;20256;-76
2024/03/16 19:15:22;;;;;;;4.83;2.00;;;9.90;99.90;;;;;;4919360;29;20245;-69
2024/03/16 19:17:49;;;;;;;18.27;7.57;;;9.70;99.90;;;;;;4919537;29;20210;-69
2024/03/16 19:20:16;;;;;;;13.10;7.27;;;9.70;99.90;;;;;;4919745;29;20305;-69
2024/03/16 19:22:42;;;;;;;12.97;6.10;;;9.60;99.90;;;;;;4919174;29;20328;-70
2024/03/16 19:25:10;;;;;;;13.10;5.50;;;9.70;99.90;;;;;;4919475;29;20238;-74
2024/03/16 19:27:37;;;;;;;5.90;3.30;;;9.70;99.90;;;;;;4919283;29;20290;-75
2024/03/16 19:30:05;;;;;;;6.83;3.10;;;9.70;99.90;;;;;;4919009;29;20221;-69
2024/03/16 19:32:32;;;;;;;5.60;3.23;;;9.60;99.90;;;;;;4919028;29;20242;-70
2024/03/16 19:34:59;;;;;;;6.97;3.00;;;9.50;99.90;;;;;;4918919;29;20230;-75
2024/03/16 19:37:25;;;;;;;5.33;2.57;;;9.50;99.90;;;;;;4919334;29;20641;-70
2024/03/16 19:39:52;;;;;;;3.93;2.00;;;9.50;99.90;;;;;;4920035;29;20268;-70
2024/03/16 19:42:18;;;;;;;3.33;1.87;;;9.40;99.90;;;;;;4919437;29;20242;-70
2024/03/16 19:44:46;;;;;;;3.47;2.10;;;9.40;99.90;;;;;;4919329;29;20232;-70
2024/03/16 19:47:13;;;;;;;3.37;2.20;;;9.40;99.90;;;;;;4918937;29;20719;-69
2024/03/16 19:49:42;;;;;;;4.50;2.07;;;9.30;99.90;;;;;;4918815;29;20214;-69
2024/03/16 19:52:08;;;;;;;3.70;1.80;;;9.30;99.90;;;;;;4918817;29;20210;-69
2024/03/16 19:54:35;;;;;;;3.17;1.57;;;9.20;99.90;;;;;;4918576;29;20261;-69
2024/03/16 19:57:02;;;;;;;5.23;2.03;;;9.20;99.90;;;;;;4918284;29;20213;-69
2024/03/16 19:59:28;;;;;;;5.23;2.37;;;9.10;99.90;;;;;;4918559;29;20205;-69
2024/03/16 20:01:54;;;;;;;3.63;1.93;;;9.10;99.90;;;;;;4918519;29;20333;-69
2024/03/16 20:04:21;;;;;;;2.93;1.67;;;9.00;99.90;;;;;;4918336;29;20324;-75
2024/03/16 20:06:53;;;;;;;2.77;1.77;;;9.10;99.90;;;;;;4918471;29;20675;-73
2024/03/16 20:09:20;;;;;;;3.53;1.73;;;9.10;99.90;;;;;;4918341;29;20268;-71
2024/03/16 20:11:47;;;;;;;5.43;1.73;;;9.10;99.90;;;;;;4918597;29;20237;-75
2024/03/16 20:14:15;;;;;;;5.77;1.87;;;9.10;99.90;;;;;;4918283;29;20270;-70
2024/03/16 20:16:41;;;;;;;4.03;2.10;;;9.20;99.90;;;;;;4918083;29;20210;-71
2024/03/16 20:19:08;;;;;;;4.00;2.17;;;9.10;99.90;;;;;;4918374;29;20206;-75
2024/03/16 20:21:35;;;;;;;3.20;1.63;;;9.00;99.90;;;;;;4917949;29;20261;-75
2024/03/16 20:24:04;;;;;;;2.40;1.50;;;9.00;99.90;;;;;;4917997;29;20568;-69
2024/03/16 20:26:30;;;;;;;2.90;1.50;;;9.00;99.90;;;;;;4918051;29;20296;-75
2024/03/16 20:28:57;;;;;;;2.23;1.37;;;8.90;99.90;;;;;;4917905;29;20288;-75
2024/03/16 20:31:23;;;;;;;4.23;1.60;;;8.90;99.90;;;;;;4917765;29;20214;-69
2024/03/16 20:33:50;;;;;;;3.53;1.30;;;8.90;99.90;;;;;;4918118;29;20236;-73
2024/03/16 20:36:19;;;;;;;4.00;1.90;;;9.00;99.90;;;;;;4917944;29;20209;-69
2024/03/16 20:38:46;;;;;;;3.27;1.50;;;8.90;99.90;;;;;;4917549;29;20220;-73
2024/03/16 20:41:17;;;;;;;3.30;1.37;;;8.80;99.90;;;;;;4918172;29;20300;-70
2024/03/16 20:43:44;;;;;;;2.90;1.67;;;8.70;99.90;;;;;;4917646;29;20245;-69
2024/03/16 20:46:11;;;;;;;2.77;1.70;;;8.70;99.90;;;;;;4917785;29;20214;-74
2024/03/16 20:48:38;;;;;;;6.07;1.73;;;8.70;99.90;;;;;;4917659;29;20269;-69
2024/03/16 20:51:05;;;;;;;4.13;1.50;;;8.60;99.90;;;;;;4917371;29;20241;-69
2024/03/16 20:53:33;;;;;;;6.50;1.90;;;8.60;99.90;;;;;;4917283;29;20229;-69
2024/03/16 20:55:59;;;;;;;5.63;1.97;;;8.60;99.90;;;;;;4917293;29;20249;-69
2024/03/16 20:58:31;;;;;;;3.50;2.17;;;8.60;99.90;;;;;;4917312;29;20233;-69
2024/03/16 21:01:00;;;;;;;4.00;2.00;;;8.50;99.90;;;;;;4917584;29;20209;-69
2024/03/16 21:03:26;;;;;;;4.10;2.10;;;8.50;99.90;;;;;;4917386;29;20268;-70
2024/03/16 21:05:54;;;;;;;5.50;2.13;;;8.50;99.90;;;;;;4917309;29;20674;-71
2024/03/16 21:08:20;;;;;;;2.80;2.10;;;8.50;99.90;;;;;;4916507;29;20304;-71
2024/03/16 21:10:48;;;;;;;3.17;2.10;;;8.40;99.90;;;;;;4916890;29;20634;-70
2024/03/16 21:13:15;;;;;;;3.77;1.87;;;8.40;99.90;;;;;;4917262;29;20237;-73
2024/03/16 21:15:43;;;;;;;4.77;1.83;;;8.40;99.90;;;;;;4917280;29;20241;-75
2024/03/16 21:18:10;;;;;;;3.53;1.93;;;8.30;99.90;;;;;;4917177;29;20213;-70
2024/03/16 21:20:38;;;;;;;2.43;1.50;;;8.40;99.90;;;;;;4916918;29;20217;-70
2024/03/16 21:23:04;;;;;;;4.47;2.00;;;8.40;99.90;;;;;;4916870;29;20237;-70
2024/03/16 21:25:31;;;;;;;3.83;1.87;;;8.30;99.90;;;;;;4917157;29;20212;-70
2024/03/16 21:27:57;;;;;;;3.83;2.10;;;8.40;99.90;;;;;;4917274;29;20245;-70
2024/03/16 21:30:24;;;;;;;5.23;1.73;;;8.20;99.90;;;;;;4916940;29;20248;-71
2024/03/16 21:32:52;;;;;;;4.17;2.30;;;8.30;99.90;;;;;;4916765;29;20687;-70
2024/03/16 21:35:20;;;;;;;4.43;1.90;;;8.30;99.90;;;;;;4917005;29;20209;-70
2024/03/16 21:37:47;;;;;;;4.27;1.80;;;8.30;99.90;;;;;;4916661;29;20212;-70
2024/03/16 21:40:14;;;;;;;4.23;2.10;;;8.30;99.90;;;;;;4916837;29;20300;-70
2024/03/16 21:42:41;;;;;;;3.83;2.13;;;8.40;99.90;;;;;;4916894;29;20808;-70
2024/03/16 21:45:08;;;;;;;3.60;1.80;;;8.40;99.90;;;;;;4916932;29;20247;-70
2024/03/16 21:47:37;;;;;;;4.33;2.17;;;8.50;99.90;;;;;;4916644;29;20210;-71
2024/03/16 21:50:05;;;;;;;4.27;2.10;;;8.50;99.90;;;;;;4916719;29;20213;-70
2024/03/16 21:52:32;;;;;;;6.00;1.93;;;8.50;99.90;;;;;;4916473;29;20214;-70
2024/03/16 21:54:57;;;;;;;3.37;2.07;;;8.60;99.90;;;;;;4916631;29;20664;-70
2024/03/16 21:57:24;;;;;;;9.37;2.13;;;8.60;99.90;;;;;;4916909;29;20300;-70
2024/03/16 21:59:50;;;;;;;4.67;2.17;;;8.70;99.90;;;;;;4916760;29;20248;-70
2024/03/16 22:02:17;;;;;;;3.40;1.80;;;8.70;99.90;;;;;;4917855;29;20268;-71
2024/03/16 22:04:45;;;;;;;4.10;1.97;;;8.70;99.90;;;;;;4917959;29;20236;-70
2024/03/16 22:07:14;;;;;;;4.13;2.10;;;8.80;99.90;;;;;;4917659;29;20294;-70
2024/03/16 22:09:41;;;;;;;3.77;1.90;;;8.80;99.90;;;;;;4918276;29;20613;-73
2024/03/16 22:12:08;;;;;;;3.50;1.87;;;8.80;99.90;;;;;;4916920;29;20212;-70
2024/03/16 22:14:34;;;;;;;3.27;1.80;;;8.70;99.90;;;;;;4916508;29;20732;-70
2024/03/16 22:17:01;;;;;;;6.17;1.97;;;8.80;99.90;;;;;;4916698;29;20245;-69
2024/03/16 22:19:27;;;;;;;6.10;2.10;;;8.90;99.90;;;;;;4916833;29;20245;-70
2024/03/16 22:21:54;;;;;;;3.27;1.93;;;9.10;99.90;;;;;;4919956;29;20268;-70
2024/03/16 22:24:21;;;;;;;3.83;2.10;;;9.10;99.90;;;;;;4919817;29;20322;-71
2024/03/16 22:26:48;;;;;;;4.07;2.00;;;9.10;99.90;;;;;;4920308;29;20216;-70
2024/03/16 22:29:14;;;;;;;3.27;1.87;;;9.20;99.90;;;;;;4919916;29;20305;-70
2024/03/16 22:31:40;;;;;;;3.70;1.97;;;9.20;99.90;;;;;;4920231;29;20292;-69
2024/03/16 22:34:07;;;;;;;5.10;2.03;;;9.20;99.90;;;;;;4919888;29;20663;-70
2024/03/16 22:36:34;;;;;;;4.87;2.17;;;9.30;99.90;;;;;;4919874;29;20260;-70
2024/03/16 22:39:00;;;;;;;7.20;2.20;;;9.20;99.90;;;;;;4919763;29;20300;-70
2024/03/16 22:41:29;;;;;;;3.20;1.80;;;9.20;99.90;;;;;;4919736;29;20305;-70
2024/03/16 22:43:55;;;;;;;3.97;2.30;;;9.30;99.90;;;;;;4919904;29;20265;-70
2024/03/16 22:46:22;;;;;;;4.33;2.00;;;9.30;99.90;;;;;;4919858;29;20248;-70
2024/03/16 22:48:48;;;;;;;4.87;2.27;;;9.30;99.90;;;;;;4919994;29;20241;-69
2024/03/16 22:51:15;;;;;;;6.00;1.93;;;9.20;99.90;;;;;;4919511;29;20634;-70
2024/03/16 22:53:40;;;;;;;4.97;2.23;;;9.20;99.90;;;;;;4919313;29;20324;-70
2024/03/16 22:56:07;;;;;;;3.97;1.73;;;9.20;99.90;;;;;;4919172;29;20304;-69
